createdAt,value
2018-07-28T00:00:10.360Z,999.68
2018-07-28T00:01:10.351Z,999.68
2018-07-28T00:02:10.349Z,999.67
2018-07-28T00:03:10.340Z,999.67
2018-07-28T00:04:10.337Z,999.69
2018-07-28T00:05:10.330Z,999.68
2018-07-28T00:06:10.321Z,999.66
2018-07-28T00:07:10.316Z,999.66
2018-07-28T00:08:10.309Z,999.65
2018-07-28T00:09:10.304Z,999.71
2018-07-28T00:10:10.301Z,999.69
2018-07-28T00:11:10.293Z,999.71
2018-07-28T00:12:10.285Z,999.71
2018-07-28T00:13:10.279Z,999.69
2018-07-28T00:14:10.275Z,999.69
2018-07-28T00:15:10.470Z,999.71
2018-07-28T00:16:10.261Z,999.72
2018-07-28T00:17:10.254Z,999.7
2018-07-28T00:18:10.249Z,999.7
2018-07-28T00:19:10.243Z,999.71
2018-07-28T00:20:10.241Z,999.65
2018-07-28T00:21:10.231Z,999.66
2018-07-28T00:22:10.227Z,999.64
2018-07-28T00:23:10.219Z,999.67
2018-07-28T00:24:10.213Z,999.63
2018-07-28T00:25:10.211Z,999.62
2018-07-28T00:26:10.202Z,999.62
2018-07-28T00:27:10.193Z,999.58
2018-07-28T00:28:10.190Z,999.57
2018-07-28T00:29:10.185Z,999.56
2018-07-28T00:30:10.185Z,999.52
2018-07-28T00:31:10.171Z,999.48
2018-07-28T00:32:10.164Z,999.51
2018-07-28T00:33:10.160Z,999.5
2018-07-28T00:34:10.152Z,999.48
2018-07-28T00:35:10.146Z,999.5
2018-07-28T00:36:10.141Z,999.52
2018-07-28T00:37:10.135Z,999.52
2018-07-28T00:38:10.127Z,999.5
2018-07-28T00:39:10.126Z,999.48
2018-07-28T00:40:10.116Z,999.47
2018-07-28T00:41:10.113Z,999.46
2018-07-28T00:42:10.106Z,999.46
2018-07-28T00:43:10.096Z,999.4
2018-07-28T00:44:10.093Z,999.4
2018-07-28T00:45:10.088Z,999.37
2018-07-28T00:46:10.078Z,999.3
2018-07-28T00:47:10.075Z,999.3
2018-07-28T00:48:10.070Z,999.27
2018-07-28T00:49:10.063Z,999.27
2018-07-28T00:50:10.056Z,999.25
2018-07-28T00:51:10.058Z,999.27
2018-07-28T00:52:10.043Z,999.24
2018-07-28T00:53:10.036Z,999.26
2018-07-28T00:54:10.031Z,999.28
2018-07-28T00:55:10.027Z,999.22
2018-07-28T00:56:10.018Z,999.23
2018-07-28T00:57:10.013Z,999.17
2018-07-28T00:58:10.010Z,999.16
2018-07-28T00:59:09.999Z,999.16
2018-07-28T01:00:09.992Z,999.18
2018-07-28T01:01:09.988Z,999.13
2018-07-28T01:02:09.982Z,999.15
2018-07-28T01:03:09.975Z,999.12
2018-07-28T01:04:09.968Z,999.12
2018-07-28T01:05:09.967Z,999.09
2018-07-28T01:06:09.957Z,999.08
2018-07-28T01:07:09.951Z,999.08
2018-07-28T01:08:09.942Z,999.03
2018-07-28T01:09:09.937Z,999.06
2018-07-28T01:10:09.931Z,999.07
2018-07-28T01:11:09.926Z,999.07
2018-07-28T01:12:09.918Z,999.1
2018-07-28T01:13:09.913Z,999.07
2018-07-28T01:14:09.910Z,999.06
2018-07-28T01:15:09.900Z,999.06
2018-07-28T01:16:09.893Z,999.05
2018-07-28T01:17:09.888Z,999.01
2018-07-28T01:18:09.881Z,999.02
2018-07-28T01:19:09.874Z,998.97
2018-07-28T01:20:09.876Z,998.98
2018-07-28T01:21:09.861Z,998.95
2018-07-28T01:22:09.855Z,998.95
2018-07-28T01:23:09.850Z,998.93
2018-07-28T01:24:09.844Z,998.91
2018-07-28T01:25:09.837Z,998.9
2018-07-28T01:26:09.829Z,998.9
2018-07-28T01:27:09.824Z,998.91
2018-07-28T01:28:09.818Z,998.89
2018-07-28T01:29:09.809Z,998.93
2018-07-28T01:30:09.806Z,998.89
2018-07-28T01:31:09.800Z,998.88
2018-07-28T01:32:09.790Z,998.87
2018-07-28T01:33:09.785Z,998.89
2018-07-28T01:34:09.779Z,998.87
2018-07-28T01:35:09.774Z,998.85
2018-07-28T01:36:09.765Z,998.87
2018-07-28T01:37:09.759Z,998.88
2018-07-28T01:38:09.754Z,998.86
2018-07-28T01:39:09.746Z,998.86
2018-07-28T01:40:09.740Z,998.84
2018-07-28T01:41:09.735Z,998.78
2018-07-28T01:42:09.728Z,998.78
2018-07-28T01:43:09.723Z,998.74
2018-07-28T01:44:09.716Z,998.77
2018-07-28T01:45:09.706Z,998.75
2018-07-28T01:46:09.701Z,998.75
2018-07-28T01:47:09.694Z,998.72
2018-07-28T01:48:09.687Z,998.7
2018-07-28T01:49:09.686Z,998.7
2018-07-28T01:50:09.675Z,998.66
2018-07-28T01:51:09.665Z,998.67
2018-07-28T01:52:09.659Z,998.67
2018-07-28T01:53:09.653Z,998.63
2018-07-28T01:54:09.648Z,998.62
2018-07-28T01:55:09.642Z,998.66
2018-07-28T01:56:09.634Z,998.63
2018-07-28T01:57:09.628Z,998.61
2018-07-28T01:58:09.621Z,998.6
2018-07-28T01:59:09.614Z,998.59
2018-07-28T02:00:09.609Z,998.58
2018-07-28T02:01:09.604Z,998.59
2018-07-28T02:02:09.596Z,998.59
2018-07-28T02:03:09.589Z,998.57
2018-07-28T02:04:09.584Z,998.58
2018-07-28T02:05:09.574Z,998.59
2018-07-28T02:06:09.567Z,998.56
2018-07-28T02:07:09.566Z,998.53
2018-07-28T02:08:09.558Z,998.53
2018-07-28T02:09:09.549Z,998.49
2018-07-28T02:10:09.544Z,998.48
2018-07-28T02:11:09.535Z,998.49
2018-07-28T02:12:09.528Z,998.41
2018-07-28T02:13:09.521Z,998.45
2018-07-28T02:14:09.517Z,998.42
2018-07-28T02:16:09.505Z,998.39
2018-07-28T02:17:09.494Z,998.37
2018-07-28T02:18:09.487Z,998.33
2018-07-28T02:19:09.481Z,998.35
2018-07-28T02:20:09.473Z,998.3
2018-07-28T02:21:09.469Z,998.28
2018-07-28T02:22:09.461Z,998.25
2018-07-28T02:23:09.454Z,998.22
2018-07-28T02:24:09.450Z,998.19
2018-07-28T02:25:09.441Z,998.17
2018-07-28T02:26:09.436Z,998.16
2018-07-28T02:27:09.427Z,998.14
2018-07-28T02:28:09.429Z,998.1
2018-07-28T02:29:09.414Z,998.14
2018-07-28T02:30:09.417Z,998.09
2018-07-28T02:31:09.400Z,998.11
2018-07-28T02:32:09.395Z,998.07
2018-07-28T02:33:09.389Z,998.04
2018-07-28T02:34:09.381Z,998.02
2018-07-28T02:35:09.380Z,998.02
2018-07-28T02:36:09.365Z,997.98
2018-07-28T02:37:09.361Z,997.99
2018-07-28T02:38:09.353Z,997.94
2018-07-28T02:39:09.349Z,997.94
2018-07-28T02:40:09.341Z,997.91
2018-07-28T02:41:09.331Z,997.94
2018-07-28T02:42:09.323Z,997.95
2018-07-28T02:43:09.317Z,997.95
2018-07-28T02:44:09.311Z,997.89
2018-07-28T02:45:09.310Z,997.91
2018-07-28T02:46:09.299Z,997.93
2018-07-28T02:47:09.290Z,997.95
2018-07-28T02:48:09.284Z,997.85
2018-07-28T02:49:09.315Z,997.85
2018-07-28T02:50:09.271Z,997.86
2018-07-28T02:51:09.262Z,997.83
2018-07-28T02:52:09.259Z,997.78
2018-07-28T02:53:09.249Z,997.8
2018-07-28T02:54:09.243Z,997.73
2018-07-28T02:55:09.233Z,997.73
2018-07-28T02:56:09.228Z,997.74
2018-07-28T02:57:09.228Z,997.75
2018-07-28T02:58:09.213Z,997.74
2018-07-28T02:59:09.207Z,997.8
2018-07-28T03:00:09.295Z,997.77
2018-07-28T03:01:09.195Z,997.79
2018-07-28T03:02:09.186Z,997.75
2018-07-28T03:03:09.183Z,997.78
2018-07-28T03:04:09.170Z,997.78
2018-07-28T03:05:09.167Z,997.76
2018-07-28T03:06:09.158Z,997.79
2018-07-28T03:07:09.150Z,997.83
2018-07-28T03:08:09.146Z,997.84
2018-07-28T03:09:09.134Z,997.82
2018-07-28T03:10:09.127Z,997.81
2018-07-28T03:11:09.120Z,997.85
2018-07-28T03:12:09.114Z,997.83
2018-07-28T03:13:09.112Z,997.82
2018-07-28T03:14:09.099Z,997.81
2018-07-28T03:15:09.093Z,997.81
2018-07-28T03:16:09.084Z,997.83
2018-07-28T03:17:09.079Z,997.81
2018-07-28T03:18:09.069Z,997.81
2018-07-28T03:19:09.063Z,997.78
2018-07-28T03:20:09.057Z,997.73
2018-07-28T03:21:09.049Z,997.75
2018-07-28T03:22:09.044Z,997.75
2018-07-28T03:23:09.034Z,997.8
2018-07-28T03:24:09.026Z,997.82
2018-07-28T03:25:09.020Z,997.71
2018-07-28T03:26:09.013Z,997.65
2018-07-28T03:27:09.004Z,997.64
2018-07-28T03:28:08.999Z,997.64
2018-07-28T03:29:08.989Z,997.62
2018-07-28T03:30:08.984Z,997.63
2018-07-28T03:31:08.979Z,997.66
2018-07-28T03:32:08.976Z,997.67
2018-07-28T03:33:08.961Z,997.75
2018-07-28T03:34:08.953Z,997.76
2018-07-28T03:35:08.947Z,997.73
2018-07-28T03:36:08.940Z,997.71
2018-07-28T03:37:08.935Z,997.67
2018-07-28T03:38:08.926Z,997.67
2018-07-28T03:39:08.919Z,997.67
2018-07-28T03:40:08.906Z,997.72
2018-07-28T03:41:08.902Z,997.74
2018-07-28T03:42:08.895Z,997.72
2018-07-28T03:43:08.887Z,997.71
2018-07-28T03:44:08.875Z,997.7
2018-07-28T03:45:08.870Z,997.63
2018-07-28T03:46:08.864Z,997.57
2018-07-28T03:47:08.857Z,997.55
2018-07-28T03:48:08.850Z,997.49
2018-07-28T03:49:08.880Z,997.48
2018-07-28T03:50:08.830Z,997.45
2018-07-28T03:51:08.827Z,997.41
2018-07-28T03:52:08.815Z,997.39
2018-07-28T03:53:08.807Z,997.38
2018-07-28T03:54:08.802Z,997.38
2018-07-28T03:55:08.793Z,997.38
2018-07-28T03:56:08.786Z,997.42
2018-07-28T03:57:08.779Z,997.41
2018-07-28T03:58:08.771Z,997.43
2018-07-28T03:59:08.767Z,997.42
2018-07-28T04:00:08.756Z,997.44
2018-07-28T04:01:08.751Z,997.48
2018-07-28T04:02:08.742Z,997.54
2018-07-28T04:03:08.732Z,997.59
2018-07-28T04:04:08.772Z,997.76
2018-07-28T04:05:08.721Z,998.07
2018-07-28T04:06:08.710Z,998.21
2018-07-28T04:07:08.701Z,998.24
2018-07-28T04:08:08.695Z,997.97
2018-07-28T04:09:08.688Z,997.94
2018-07-28T04:10:08.679Z,998.34
2018-07-28T04:11:08.672Z,998.4
2018-07-28T04:12:08.666Z,998.35
2018-07-28T04:13:08.657Z,998.02
2018-07-28T04:14:08.647Z,997.88
2018-07-28T04:15:08.640Z,997.8
2018-07-28T04:16:08.838Z,997.84
2018-07-28T04:17:08.628Z,997.9
2018-07-28T04:18:08.618Z,997.92
2018-07-28T04:19:08.612Z,997.98
2018-07-28T04:20:08.604Z,997.91
2018-07-28T04:21:08.593Z,997.88
2018-07-28T04:22:08.589Z,997.86
2018-07-28T04:23:08.580Z,997.89
2018-07-28T04:24:08.572Z,998.06
2018-07-28T04:25:08.564Z,998.33
2018-07-28T04:26:08.554Z,998.4
2018-07-28T04:27:08.548Z,998.33
2018-07-28T04:28:08.537Z,998.14
2018-07-28T04:29:08.534Z,997.88
2018-07-28T04:30:08.523Z,997.76
2018-07-28T04:31:08.515Z,997.86
2018-07-28T04:32:08.505Z,998.03
2018-07-28T04:33:08.499Z,998.31
2018-07-28T04:34:08.492Z,998.35
2018-07-28T04:35:08.484Z,998.34
2018-07-28T04:36:08.475Z,998.2
2018-07-28T04:37:08.549Z,997.92
2018-07-28T04:38:08.461Z,997.91
2018-07-28T04:39:08.453Z,998.1
2018-07-28T04:40:08.445Z,998.27
2018-07-28T04:41:08.436Z,998.33
2018-07-28T04:42:08.430Z,998.27
2018-07-28T04:43:08.424Z,997.95
2018-07-28T04:44:08.413Z,997.78
2018-07-28T04:45:08.406Z,997.92
2018-07-28T04:46:08.397Z,998.21
2018-07-28T04:47:08.391Z,998.3
2018-07-28T04:48:08.383Z,998.27
2018-07-28T04:49:08.374Z,998.15
2018-07-28T04:50:08.367Z,997.9
2018-07-28T04:51:08.357Z,997.8
2018-07-28T04:52:08.351Z,997.93
2018-07-28T04:53:08.345Z,998.14
2018-07-28T04:54:08.335Z,998.22
2018-07-28T04:55:08.325Z,998.23
2018-07-28T04:56:08.327Z,998.09
2018-07-28T04:57:08.309Z,997.93
2018-07-28T04:58:08.303Z,997.88
2018-07-28T04:59:08.299Z,997.88
2018-07-28T05:00:08.288Z,997.94
2018-07-28T05:01:08.281Z,997.91
2018-07-28T05:02:08.273Z,997.95
2018-07-28T05:03:08.316Z,998.02
2018-07-28T05:04:08.263Z,998.06
2018-07-28T05:05:08.252Z,998.08
2018-07-28T05:06:08.245Z,998.02
2018-07-28T05:07:08.235Z,997.93
2018-07-28T05:08:08.224Z,997.78
2018-07-28T05:09:08.238Z,997.75
2018-07-28T05:10:08.212Z,997.75
2018-07-28T05:11:08.206Z,997.85
2018-07-28T05:12:08.194Z,997.88
2018-07-28T05:13:08.187Z,997.95
2018-07-28T05:14:08.181Z,997.96
2018-07-28T05:15:08.171Z,998
2018-07-28T05:16:08.164Z,997.95
2018-07-28T05:17:08.160Z,997.84
2018-07-28T05:18:08.149Z,997.7
2018-07-28T05:19:08.140Z,997.74
2018-07-28T05:20:08.137Z,997.8
2018-07-28T05:21:08.126Z,997.89
2018-07-28T05:22:08.119Z,997.99
2018-07-28T05:23:08.111Z,998.03
2018-07-28T05:24:08.103Z,997.94
2018-07-28T05:25:08.098Z,997.74
2018-07-28T05:26:08.087Z,997.57
2018-07-28T05:27:08.079Z,997.56
2018-07-28T05:28:08.073Z,997.51
2018-07-28T05:29:08.065Z,997.52
2018-07-28T05:30:08.059Z,997.51
2018-07-28T05:31:08.050Z,997.53
2018-07-28T05:32:08.043Z,997.62
2018-07-28T05:33:08.035Z,997.64
2018-07-28T05:34:08.073Z,997.69
2018-07-28T05:35:08.019Z,997.73
2018-07-28T05:36:08.015Z,997.77
2018-07-28T05:37:08.065Z,997.76
2018-07-28T05:38:08.001Z,997.68
2018-07-28T05:39:08.027Z,997.67
2018-07-28T05:40:07.983Z,997.61
2018-07-28T05:41:07.974Z,997.58
2018-07-28T05:42:07.967Z,997.58
2018-07-28T05:43:07.962Z,997.59
2018-07-28T05:44:07.951Z,997.63
2018-07-28T05:45:07.946Z,997.65
2018-07-28T05:46:07.942Z,997.62
2018-07-28T05:47:07.933Z,997.63
2018-07-28T05:48:07.924Z,997.64
2018-07-28T05:49:07.918Z,997.66
2018-07-28T05:50:08.010Z,997.69
2018-07-28T05:51:07.903Z,997.7
2018-07-28T05:52:07.894Z,997.65
2018-07-28T05:53:07.886Z,997.69
2018-07-28T05:54:07.878Z,997.69
2018-07-28T05:55:07.874Z,997.74
2018-07-28T05:56:07.865Z,997.84
2018-07-28T05:57:07.859Z,997.79
2018-07-28T05:58:07.850Z,997.82
2018-07-28T05:59:07.846Z,997.75
2018-07-28T06:00:07.837Z,997.74
2018-07-28T06:01:07.828Z,997.67
2018-07-28T06:02:07.849Z,997.66
2018-07-28T06:03:07.812Z,997.66
2018-07-28T06:04:07.806Z,997.64
2018-07-28T06:05:07.799Z,997.66
2018-07-28T06:06:07.790Z,997.66
2018-07-28T06:07:07.787Z,997.6
2018-07-28T06:08:07.781Z,997.62
2018-07-28T06:09:07.769Z,997.6
2018-07-28T06:10:07.764Z,997.54
2018-07-28T06:11:07.755Z,997.54
2018-07-28T06:12:07.748Z,997.54
2018-07-28T06:13:07.745Z,997.57
2018-07-28T06:14:07.800Z,997.51
2018-07-28T06:15:07.726Z,997.52
2018-07-28T06:16:07.932Z,997.56
2018-07-28T06:17:07.711Z,997.56
2018-07-28T06:18:07.707Z,997.53
2018-07-28T06:19:07.706Z,997.52
2018-07-28T06:20:07.691Z,997.46
2018-07-28T06:21:07.682Z,997.47
2018-07-28T06:22:07.764Z,997.47
2018-07-28T06:23:07.675Z,997.47
2018-07-28T06:24:07.666Z,997.48
2018-07-28T06:25:07.658Z,997.46
2018-07-28T06:26:07.650Z,997.48
2018-07-28T06:27:07.645Z,997.46
2018-07-28T06:28:07.634Z,997.46
2018-07-28T06:29:07.632Z,997.49
2018-07-28T06:30:07.622Z,997.54
2018-07-28T06:31:07.617Z,997.54
2018-07-28T06:32:07.615Z,997.58
2018-07-28T06:33:07.601Z,997.57
2018-07-28T06:34:07.595Z,997.57
2018-07-28T06:35:07.590Z,997.61
2018-07-28T06:36:07.584Z,997.64
2018-07-28T06:37:07.574Z,997.67
2018-07-28T06:38:07.570Z,997.73
2018-07-28T06:39:07.559Z,997.73
2018-07-28T06:40:07.553Z,997.78
2018-07-28T06:41:07.549Z,997.8
2018-07-28T06:42:07.540Z,997.78
2018-07-28T06:43:07.533Z,997.79
2018-07-28T06:44:07.530Z,997.83
2018-07-28T06:45:07.523Z,997.79
2018-07-28T06:46:07.519Z,997.83
2018-07-28T06:47:07.509Z,997.83
2018-07-28T06:48:07.503Z,997.85
2018-07-28T06:49:07.496Z,997.82
2018-07-28T06:50:07.490Z,997.83
2018-07-28T06:51:07.484Z,997.81
2018-07-28T06:52:07.477Z,997.82
2018-07-28T06:53:07.474Z,997.78
2018-07-28T06:54:07.468Z,997.78
2018-07-28T06:55:07.461Z,997.79
2018-07-28T06:56:07.453Z,997.82
2018-07-28T06:57:07.450Z,997.76
2018-07-28T06:58:07.442Z,997.75
2018-07-28T06:59:07.436Z,997.74
2018-07-28T07:00:07.429Z,997.78
2018-07-28T07:01:07.421Z,997.8
2018-07-28T07:02:07.417Z,997.88
2018-07-28T07:03:07.413Z,998.01
2018-07-28T07:04:07.406Z,998.23
2018-07-28T07:05:07.400Z,998.51
2018-07-28T07:06:07.396Z,998.62
2018-07-28T07:07:07.386Z,998.69
2018-07-28T07:08:07.383Z,998.64
2018-07-28T07:09:07.376Z,998.56
2018-07-28T07:10:07.372Z,998.52
2018-07-28T07:11:07.369Z,998.53
2018-07-28T07:12:07.361Z,998.6
2018-07-28T07:13:07.355Z,998.58
2018-07-28T07:14:07.347Z,998.6
2018-07-28T07:15:07.344Z,998.57
2018-07-28T07:16:07.335Z,998.57
2018-07-28T07:17:07.331Z,998.59
2018-07-28T07:18:07.326Z,998.7
2018-07-28T07:19:07.320Z,998.88
2018-07-28T07:20:07.316Z,998.75
2018-07-28T07:21:07.307Z,998.6
2018-07-28T07:22:07.306Z,998.72
2018-07-28T07:23:07.302Z,998.77
2018-07-28T07:24:07.292Z,998.85
2018-07-28T07:25:07.290Z,998.93
2018-07-28T07:26:07.280Z,998.89
2018-07-28T07:27:07.274Z,998.87
2018-07-28T07:28:07.267Z,998.84
2018-07-28T07:29:07.264Z,998.85
2018-07-28T07:30:07.256Z,998.98
2018-07-28T07:31:07.252Z,999.08
2018-07-28T07:32:07.250Z,999.13
2018-07-28T07:33:07.240Z,999.07
2018-07-28T07:34:07.237Z,999.05
2018-07-28T07:35:07.233Z,999.1
2018-07-28T07:36:07.274Z,999.09
2018-07-28T07:37:07.218Z,999.12
2018-07-28T07:38:07.212Z,999.1
2018-07-28T07:39:07.208Z,999.08
2018-07-28T07:40:07.204Z,999.09
2018-07-28T07:41:07.195Z,999.01
2018-07-28T07:42:07.194Z,999.02
2018-07-28T07:43:07.186Z,998.99
2018-07-28T07:44:07.184Z,999.03
2018-07-28T07:45:07.171Z,999
2018-07-28T07:46:07.166Z,998.99
2018-07-28T07:47:07.230Z,998.98
2018-07-28T07:48:07.164Z,999
2018-07-28T07:49:07.151Z,998.89
2018-07-28T07:50:07.147Z,998.95
2018-07-28T07:51:07.152Z,998.97
2018-07-28T07:52:07.133Z,998.99
2018-07-28T07:53:07.128Z,998.96
2018-07-28T07:54:07.124Z,998.87
2018-07-28T07:55:07.117Z,998.94
2018-07-28T07:56:07.109Z,998.96
2018-07-28T07:57:07.104Z,998.99
2018-07-28T07:58:07.100Z,999.01
2018-07-28T07:59:07.095Z,999.03
2018-07-28T08:00:07.086Z,999.05
2018-07-28T08:01:07.088Z,999.09
2018-07-28T08:02:07.075Z,999.06
2018-07-28T08:03:07.070Z,999.06
2018-07-28T08:04:07.064Z,999.05
2018-07-28T08:05:07.058Z,999.06
2018-07-28T08:06:07.051Z,998.96
2018-07-28T08:07:07.047Z,998.94
2018-07-28T08:08:07.039Z,998.97
2018-07-28T08:09:07.034Z,998.95
2018-07-28T08:10:07.027Z,998.95
2018-07-28T08:11:07.021Z,998.91
2018-07-28T08:12:07.016Z,998.93
2018-07-28T08:13:07.009Z,998.95
2018-07-28T08:14:07.003Z,998.93
2018-07-28T08:15:06.997Z,998.89
2018-07-28T08:16:07.194Z,998.88
2018-07-28T08:17:06.986Z,998.86
2018-07-28T08:18:06.978Z,998.81
2018-07-28T08:19:06.974Z,998.84
2018-07-28T08:20:06.966Z,998.84
2018-07-28T08:21:07.040Z,998.89
2018-07-28T08:22:06.953Z,998.93
2018-07-28T08:23:06.955Z,998.96
2018-07-28T08:24:06.943Z,999
2018-07-28T08:25:06.937Z,999.03
2018-07-28T08:26:06.930Z,999.04
2018-07-28T08:27:06.923Z,999.08
2018-07-28T08:28:06.917Z,999.14
2018-07-28T08:29:06.914Z,999.16
2018-07-28T08:30:06.904Z,999.17
2018-07-28T08:31:06.900Z,999.14
2018-07-28T08:32:06.900Z,999.03
2018-07-28T08:33:06.888Z,998.93
2018-07-28T08:34:06.879Z,998.81
2018-07-28T08:35:06.871Z,998.79
2018-07-28T08:36:06.865Z,998.77
2018-07-28T08:37:06.859Z,998.9
2018-07-28T08:38:06.852Z,998.98
2018-07-28T08:39:06.847Z,998.98
2018-07-28T08:40:06.857Z,998.96
2018-07-28T08:41:06.840Z,999.01
2018-07-28T08:42:06.826Z,999.05
2018-07-28T08:43:06.822Z,999.08
2018-07-28T08:44:06.814Z,999.03
2018-07-28T08:45:06.808Z,999.09
2018-07-28T08:46:06.800Z,999.12
2018-07-28T08:47:06.792Z,999.14
2018-07-28T08:48:06.787Z,999.09
2018-07-28T08:49:06.884Z,999.13
2018-07-28T08:50:06.774Z,999.17
2018-07-28T08:51:06.767Z,999.14
2018-07-28T08:52:06.760Z,999.12
2018-07-28T08:53:06.757Z,999.14
2018-07-28T08:54:06.752Z,999.12
2018-07-28T08:55:06.740Z,999.14
2018-07-28T08:56:06.736Z,999.14
2018-07-28T08:57:06.733Z,999.15
2018-07-28T08:58:06.721Z,999.16
2018-07-28T08:59:06.714Z,999.15
2018-07-28T09:00:06.710Z,999.1
2018-07-28T09:01:06.703Z,999.1
2018-07-28T09:02:06.698Z,999.11
2018-07-28T09:03:06.692Z,999.13
2018-07-28T09:04:06.684Z,999.15
2018-07-28T09:05:06.678Z,999.21
2018-07-28T09:06:06.673Z,999.21
2018-07-28T09:07:06.670Z,999.17
2018-07-28T09:08:06.660Z,999.18
2018-07-28T09:09:06.656Z,999.17
2018-07-28T09:10:06.647Z,999.18
2018-07-28T09:11:06.640Z,999.18
2018-07-28T09:12:06.636Z,999.17
2018-07-28T09:13:06.630Z,999.2
2018-07-28T09:14:06.626Z,999.19
2018-07-28T09:15:06.616Z,999.16
2018-07-28T09:16:06.608Z,999.14
2018-07-28T09:17:06.604Z,999.14
2018-07-28T09:18:06.607Z,999.09
2018-07-28T09:19:06.594Z,999.08
2018-07-28T09:20:06.585Z,999.06
2018-07-28T09:21:06.579Z,999.04
2018-07-28T09:22:06.573Z,999.12
2018-07-28T09:23:06.624Z,999.18
2018-07-28T09:24:06.561Z,999.21
2018-07-28T09:25:06.554Z,999.32
2018-07-28T09:26:06.551Z,999.48
2018-07-28T09:27:06.545Z,999.5
2018-07-28T09:28:06.539Z,999.59
2018-07-28T09:29:06.529Z,999.63
2018-07-28T09:30:06.525Z,999.72
2018-07-28T09:31:06.516Z,999.79
2018-07-28T09:32:06.508Z,999.85
2018-07-28T09:33:06.503Z,999.95
2018-07-28T09:34:06.498Z,999.94
2018-07-28T09:35:06.492Z,999.98
2018-07-28T09:36:06.486Z,999.96
2018-07-28T09:37:06.479Z,999.95
2018-07-28T09:38:06.470Z,999.94
2018-07-28T09:39:06.464Z,999.94
2018-07-28T09:40:06.456Z,999.96
2018-07-28T09:41:06.449Z,999.97
2018-07-28T09:42:06.445Z,999.94
2018-07-28T09:43:06.439Z,999.96
2018-07-28T09:44:06.431Z,999.93
2018-07-28T09:45:06.421Z,999.92
2018-07-28T09:46:06.412Z,999.94
2018-07-28T09:47:06.436Z,999.95
2018-07-28T09:48:06.409Z,999.97
2018-07-28T09:49:06.389Z,999.93
2018-07-28T09:50:06.382Z,1000.02
2018-07-28T09:51:06.376Z,999.98
2018-07-28T09:52:06.370Z,999.95
2018-07-28T09:53:06.361Z,999.98
2018-07-28T09:54:06.351Z,999.97
2018-07-28T09:55:06.342Z,999.95
2018-07-28T09:56:06.388Z,999.91
2018-07-28T09:57:06.339Z,999.92
2018-07-28T09:58:06.321Z,999.87
2018-07-28T09:59:06.317Z,999.83
2018-07-28T10:00:06.302Z,999.84
2018-07-28T10:01:06.296Z,999.84
2018-07-28T10:02:06.286Z,999.91
2018-07-28T10:03:06.284Z,999.95
2018-07-28T10:04:06.274Z,1000.04
2018-07-28T10:05:06.264Z,1000.08
2018-07-28T10:06:06.261Z,1000.08
2018-07-28T10:07:06.251Z,1000.07
2018-07-28T10:08:06.240Z,1000.08
2018-07-28T10:09:06.233Z,1000.01
2018-07-28T10:10:06.227Z,999.94
2018-07-28T10:11:06.216Z,999.95
2018-07-28T10:12:06.209Z,1000.02
2018-07-28T10:13:06.201Z,1000.08
2018-07-28T10:14:06.193Z,1000.02
2018-07-28T10:15:06.192Z,999.99
2018-07-28T10:16:06.408Z,999.98
2018-07-28T10:17:06.174Z,999.97
2018-07-28T10:18:06.166Z,1000
2018-07-28T10:19:06.157Z,1000.03
2018-07-28T10:20:06.152Z,999.99
2018-07-28T10:21:06.144Z,1000.01
2018-07-28T10:22:06.135Z,1000.02
2018-07-28T10:23:06.180Z,1000.08
2018-07-28T10:24:06.124Z,1000.15
2018-07-28T10:25:06.116Z,1000.17
2018-07-28T10:26:06.107Z,1000.2
2018-07-28T10:27:06.105Z,1000.24
2018-07-28T10:28:06.096Z,1000.27
2018-07-28T10:29:06.091Z,1000.31
2018-07-28T10:30:06.115Z,1000.34
2018-07-28T10:31:06.077Z,1000.33
2018-07-28T10:32:06.068Z,1000.27
2018-07-28T10:33:06.065Z,1000.26
2018-07-28T10:34:06.056Z,1000.24
2018-07-28T10:35:06.050Z,1000.25
2018-07-28T10:36:06.045Z,1000.31
2018-07-28T10:37:06.037Z,1000.31
2018-07-28T10:38:06.033Z,1000.29
2018-07-28T10:39:06.029Z,1000.31
2018-07-28T10:40:06.018Z,1000.27
2018-07-28T10:41:06.013Z,1000.2
2018-07-28T10:42:06.007Z,1000.23
2018-07-28T10:43:06.012Z,1000.21
2018-07-28T10:44:05.994Z,1000.16
2018-07-28T10:45:05.996Z,1000.13
2018-07-28T10:46:05.983Z,1000.09
2018-07-28T10:47:05.977Z,1000.1
2018-07-28T10:48:05.972Z,1000.12
2018-07-28T10:49:05.964Z,1000.11
2018-07-28T10:50:05.963Z,1000.14
2018-07-28T10:51:05.956Z,1000.22
2018-07-28T10:52:05.948Z,1000.16
2018-07-28T10:53:05.941Z,1000.18
2018-07-28T10:54:05.940Z,1000.12
2018-07-28T10:55:05.931Z,1000.2
2018-07-28T10:56:05.931Z,1000.15
2018-07-28T10:57:05.922Z,1000.12
2018-07-28T10:58:05.919Z,1000.09
2018-07-28T10:59:05.911Z,1000.12
2018-07-28T11:00:05.946Z,1000.07
2018-07-28T11:01:05.902Z,1000.02
2018-07-28T11:02:05.901Z,1000
2018-07-28T11:03:05.894Z,1000
2018-07-28T11:04:05.889Z,999.98
2018-07-28T11:05:05.886Z,1000
2018-07-28T11:06:05.885Z,1000.01
2018-07-28T11:07:05.874Z,1000.01
2018-07-28T11:08:05.872Z,999.99
2018-07-28T11:09:05.874Z,1000
2018-07-28T11:10:05.860Z,1000.02
2018-07-28T11:11:05.857Z,999.97
2018-07-28T11:12:05.856Z,999.93
2018-07-28T11:13:05.846Z,999.95
2018-07-28T11:14:05.845Z,999.95
2018-07-28T11:15:05.839Z,1000
2018-07-28T11:16:05.833Z,1000
2018-07-28T11:17:05.828Z,1000.03
2018-07-28T11:18:05.825Z,1000.04
2018-07-28T11:19:05.910Z,1000.1
2018-07-28T11:20:05.815Z,1000.14
2018-07-28T11:21:05.810Z,1000.18
2018-07-28T11:22:05.804Z,1000.17
2018-07-28T11:23:05.803Z,1000.09
2018-07-28T11:24:05.805Z,1000.14
2018-07-28T11:25:05.793Z,1000.13
2018-07-28T11:26:05.853Z,1000.13
2018-07-28T11:27:05.784Z,1000.15
2018-07-28T11:28:05.777Z,1000.23
2018-07-28T11:29:05.773Z,1000.16
2018-07-28T11:30:05.770Z,1000.15
2018-07-28T11:31:05.765Z,1000.16
2018-07-28T11:32:05.904Z,1000.22
2018-07-28T11:33:05.760Z,1000.15
2018-07-28T11:34:05.757Z,1000.11
2018-07-28T11:35:05.757Z,1000.12
2018-07-28T11:36:05.752Z,1000.13
2018-07-28T11:37:05.756Z,1000.07
2018-07-28T11:38:05.748Z,1000.1
2018-07-28T11:39:05.748Z,1000.16
2018-07-28T11:40:05.748Z,1000.11
2018-07-28T11:41:05.747Z,1000.09
2018-07-28T11:42:05.749Z,1000.07
2018-07-28T11:43:05.749Z,1000.1
2018-07-28T11:44:05.747Z,1000.13
2018-07-28T11:45:05.782Z,1000.08
2018-07-28T11:46:05.755Z,1000.07
2018-07-28T11:47:05.748Z,1000.08
2018-07-28T11:48:05.748Z,1000.04
2018-07-28T11:49:05.753Z,1000.09
2018-07-28T11:50:05.746Z,1000.1
2018-07-28T11:51:05.748Z,1000.11
2018-07-28T11:52:05.746Z,1000.08
2018-07-28T11:53:05.747Z,1000.13
2018-07-28T11:54:05.747Z,1000.16
2018-07-28T11:55:05.750Z,1000.16
2018-07-28T11:56:05.747Z,1000.17
2018-07-28T11:57:05.749Z,1000.13
2018-07-28T11:58:05.803Z,1000.11
2018-07-28T11:59:05.746Z,1000.14
2018-07-28T12:00:05.750Z,1000.03
2018-07-28T12:01:05.745Z,1000.06
2018-07-28T12:02:05.747Z,1000.08
2018-07-28T12:03:05.747Z,1000.04
2018-07-28T12:04:05.747Z,1000.14
2018-07-28T12:05:05.751Z,1000.11
2018-07-28T12:06:05.749Z,1000.04
2018-07-28T12:07:05.744Z,1000.05
2018-07-28T12:08:05.746Z,999.99
2018-07-28T12:09:05.746Z,1000.06
2018-07-28T12:10:05.746Z,1000.09
2018-07-28T12:11:05.748Z,1000.1
2018-07-28T12:12:05.751Z,1000.02
2018-07-28T12:13:05.751Z,999.98
2018-07-28T12:14:05.752Z,1000.01
2018-07-28T12:15:05.753Z,1000.06
2018-07-28T12:16:05.969Z,1000.03
2018-07-28T12:17:05.756Z,999.98
2018-07-28T12:18:05.768Z,999.98
2018-07-28T12:19:05.762Z,999.94
2018-07-28T12:20:05.762Z,999.96
2018-07-28T12:21:05.765Z,1000.08
2018-07-28T12:22:05.765Z,1000.07
2018-07-28T12:23:05.765Z,1000.09
2018-07-28T12:24:05.901Z,1000.09
2018-07-28T12:25:05.773Z,1000.09
2018-07-28T12:26:05.774Z,1000.02
2018-07-28T12:27:05.776Z,1000.06
2018-07-28T12:28:05.780Z,1000.03